createdAt,value
2022-09-07T00:00:58.878Z,2.17
2022-09-07T00:03:25.625Z,1.93
2022-09-07T00:05:52.767Z,1.97
2022-09-07T00:08:22.989Z,2.30
2022-09-07T00:10:58.105Z,2.07
2022-09-07T00:13:27.441Z,1.67
2022-09-07T00:15:54.154Z,2.40
2022-09-07T00:18:20.907Z,1.70
2022-09-07T00:20:56.944Z,1.37
2022-09-07T00:23:23.518Z,2.10
2022-09-07T00:25:53.911Z,1.90
2022-09-07T00:28:20.713Z,1.47
2022-09-07T00:30:47.285Z,1.40
2022-09-07T00:33:13.864Z,1.63
2022-09-07T00:35:41.568Z,1.80
2022-09-07T00:38:08.841Z,1.70
2022-09-07T00:40:35.617Z,1.73
2022-09-07T00:43:02.293Z,2.00
2022-09-07T00:45:29.256Z,1.70
2022-09-07T00:48:01.849Z,2.10
2022-09-07T00:50:42.939Z,1.77
2022-09-07T00:53:09.479Z,1.87
2022-09-07T00:55:37.625Z,1.80
2022-09-07T00:58:05.816Z,1.33
2022-09-07T01:00:32.805Z,1.47
2022-09-07T01:03:00.395Z,1.27
2022-09-07T01:05:38.979Z,1.40
2022-09-07T01:08:06.310Z,1.30
2022-09-07T01:10:34.352Z,1.27
2022-09-07T01:13:01.654Z,1.40
2022-09-07T01:15:46.090Z,1.23
2022-09-07T01:18:30.899Z,1.33
2022-09-07T01:21:20.725Z,1.10
2022-09-07T01:24:05.347Z,1.10
2022-09-07T01:26:53.264Z,1.47
2022-09-07T01:29:41.913Z,1.20
2022-09-07T01:32:50.437Z,1.07
2022-09-07T01:35:28.526Z,0.97
2022-09-07T01:38:09.840Z,1.17
2022-09-07T01:40:55.999Z,1.07
2022-09-07T01:43:41.416Z,1.30
2022-09-07T01:46:17.243Z,1.00
2022-09-07T01:48:46.094Z,1.00
2022-09-07T01:51:13.175Z,1.00
2022-09-07T01:53:45.333Z,0.90
2022-09-07T01:56:16.652Z,1.10
2022-09-07T01:59:14.574Z,1.30
2022-09-07T02:01:53.582Z,1.00
2022-09-07T02:04:27.231Z,1.10
2022-09-07T02:07:07.593Z,1.17
2022-09-07T02:09:49.807Z,0.90
2022-09-07T02:12:26.687Z,1.30
2022-09-07T02:14:59.381Z,1.20
2022-09-07T02:17:33.686Z,0.80
2022-09-07T02:20:13.547Z,0.90
2022-09-07T02:22:45.085Z,1.10
2022-09-07T02:25:19.781Z,0.90
2022-09-07T02:27:51.507Z,0.90
2022-09-07T02:30:18.206Z,0.97
2022-09-07T02:32:44.909Z,1.20
2022-09-07T02:35:12.051Z,0.90
2022-09-07T02:37:39.657Z,0.87
2022-09-07T02:40:07.091Z,0.93
2022-09-07T02:42:34.909Z,1.00
2022-09-07T02:45:05.450Z,1.00
2022-09-07T02:48:06.680Z,1.00
2022-09-07T02:51:10.032Z,0.90
2022-09-07T02:54:00.445Z,0.87
2022-09-07T02:56:26.972Z,0.90
2022-09-07T02:59:23.727Z,1.10
2022-09-07T03:02:12.407Z,0.70
2022-09-07T03:04:47.774Z,0.90
2022-09-07T03:07:22.800Z,1.10
2022-09-07T03:09:53.195Z,0.80
2022-09-07T03:12:19.862Z,0.80
2022-09-07T03:14:46.483Z,0.83
2022-09-07T03:17:13.689Z,0.93
2022-09-07T03:19:40.284Z,0.97
2022-09-07T03:22:07.437Z,0.70
2022-09-07T03:24:34.118Z,1.00
2022-09-07T03:27:00.741Z,0.80
2022-09-07T03:29:27.323Z,0.97
2022-09-07T03:31:53.875Z,0.80
2022-09-07T03:34:20.421Z,1.10
2022-09-07T03:36:47.012Z,1.10
2022-09-07T03:39:13.851Z,1.10
2022-09-07T03:41:40.452Z,1.00
2022-09-07T03:44:08.209Z,0.97
2022-09-07T03:46:34.881Z,0.90
2022-09-07T03:49:01.543Z,1.40
2022-09-07T03:51:28.185Z,1.10
2022-09-07T03:53:55.084Z,1.00
2022-09-07T03:56:24.617Z,0.80
2022-09-07T03:58:53.232Z,0.83
2022-09-07T04:01:25.261Z,1.23
2022-09-07T04:03:52.820Z,1.30
2022-09-07T04:06:19.692Z,0.90
2022-09-07T04:08:46.274Z,0.70
2022-09-07T04:11:14.966Z,1.10
2022-09-07T04:13:42.160Z,1.00
2022-09-07T04:16:14.360Z,0.97
2022-09-07T04:18:41.596Z,1.30
2022-09-07T04:21:08.616Z,0.90
2022-09-07T04:23:38.176Z,1.07
2022-09-07T04:26:04.845Z,1.37
2022-09-07T04:28:31.631Z,1.13
2022-09-07T04:31:02.451Z,1.70
2022-09-07T04:33:32.365Z,1.67
2022-09-07T04:36:02.457Z,1.50
2022-09-07T04:38:29.376Z,1.63
2022-09-07T04:41:06.631Z,1.80
2022-09-07T04:43:33.248Z,1.40
2022-09-07T04:46:08.049Z,1.30
2022-09-07T04:48:35.016Z,1.30
2022-09-07T04:51:09.676Z,1.30
2022-09-07T04:53:37.990Z,1.30
2022-09-07T04:56:05.371Z,1.53
2022-09-07T04:58:32.600Z,1.40
2022-09-07T05:01:03.868Z,1.33
2022-09-07T05:03:32.436Z,1.50
2022-09-07T05:06:03.389Z,1.30
2022-09-07T05:08:30.117Z,1.43
2022-09-07T05:10:59.602Z,1.40
2022-09-07T05:13:26.230Z,1.70
2022-09-07T05:15:52.801Z,1.47
2022-09-07T05:18:19.496Z,1.30
2022-09-07T05:20:46.091Z,1.53
2022-09-07T05:23:12.658Z,1.57
2022-09-07T05:25:46.516Z,1.87
2022-09-07T05:28:18.617Z,1.80
2022-09-07T05:36:20.585Z,1.83
2022-09-07T05:38:47.439Z,1.70
2022-09-07T05:41:19.241Z,1.80
2022-09-07T05:46:33.042Z,1.90
2022-09-07T05:49:00.592Z,1.83
2022-09-07T05:51:27.192Z,1.90
2022-09-07T05:53:53.778Z,1.93
2022-09-07T05:56:20.333Z,2.10
2022-09-07T05:58:50.078Z,1.87
2022-09-07T06:01:16.883Z,2.20
2022-09-07T06:03:44.573Z,1.83
2022-09-07T06:06:16.823Z,2.23
2022-09-07T06:08:52.308Z,1.93
2022-09-07T06:11:24.608Z,1.90
2022-09-07T06:13:52.042Z,1.77
2022-09-07T06:16:19.753Z,1.80
2022-09-07T06:18:48.453Z,2.30
2022-09-07T06:21:20.915Z,2.10
2022-09-07T06:23:48.509Z,1.93
2022-09-07T06:26:16.514Z,2.17
2022-09-07T06:28:48.714Z,2.13
2022-09-07T06:31:20.701Z,2.30
2022-09-07T06:33:48.245Z,2.10
2022-09-07T06:36:19.596Z,2.80
2022-09-07T06:38:47.023Z,2.70
2022-09-07T06:44:07.241Z,2.03
2022-09-07T06:49:20.340Z,2.70
2022-09-07T06:51:47.534Z,2.00
2022-09-07T06:57:06.111Z,2.43
2022-09-07T06:59:32.667Z,2.53
2022-09-07T07:01:59.225Z,3.30
2022-09-07T07:04:25.803Z,3.40
2022-09-07T07:06:52.542Z,6.90
2022-09-07T07:09:19.223Z,7.10
2022-09-07T07:11:47.304Z,8.10
2022-09-07T07:14:15.321Z,6.33
2022-09-07T07:16:42.209Z,6.70
2022-09-07T07:19:09.368Z,7.03
2022-09-07T07:21:55.215Z,8.70
2022-09-07T07:24:23.224Z,8.50
2022-09-07T07:26:49.805Z,9.17
2022-09-07T07:29:18.765Z,9.60
2022-09-07T07:31:46.807Z,10.80
2022-09-07T07:34:13.387Z,10.53
2022-09-07T07:36:40.359Z,9.80
2022-09-07T07:39:07.076Z,10.30
2022-09-07T07:44:20.601Z,10.70
2022-09-07T07:46:48.846Z,10.50
2022-09-07T07:49:15.898Z,10.10
2022-09-07T07:54:29.174Z,10.50
2022-09-07T07:56:56.236Z,9.57
2022-09-07T07:59:23.164Z,10.80
2022-09-07T08:01:49.747Z,10.43
2022-09-07T08:04:16.598Z,10.07
2022-09-07T08:06:43.827Z,10.10
2022-09-07T08:09:11.937Z,9.60
2022-09-07T08:11:40.115Z,10.17
2022-09-07T08:14:08.433Z,8.97
2022-09-07T08:16:36.147Z,9.23
2022-09-07T08:19:03.088Z,9.03
2022-09-07T08:21:29.786Z,9.23
2022-09-07T08:23:56.320Z,8.33
2022-09-07T08:26:22.878Z,8.07
2022-09-07T08:28:49.436Z,8.00
2022-09-07T08:31:17.224Z,6.77
2022-09-07T08:33:44.336Z,6.40
2022-09-07T08:36:16.576Z,7.40
2022-09-07T08:38:43.886Z,8.00
2022-09-07T08:41:39.171Z,7.03
2022-09-07T08:45:02.657Z,8.30
2022-09-07T08:47:49.734Z,7.80
2022-09-07T08:50:19.500Z,7.63
2022-09-07T08:52:50.495Z,7.23
2022-09-07T08:55:26.740Z,6.93
2022-09-07T08:58:02.939Z,6.37
2022-09-07T09:00:30.866Z,6.20
2022-09-07T09:05:58.808Z,6.30
2022-09-07T09:08:48.907Z,6.80
2022-09-07T09:11:25.858Z,7.00
2022-09-07T09:14:04.705Z,6.30
2022-09-07T09:16:42.988Z,6.70
2022-09-07T09:19:19.073Z,5.93
2022-09-07T09:21:45.807Z,5.10
2022-09-07T09:24:20.071Z,6.50
2022-09-07T09:26:53.074Z,4.77
2022-09-07T09:29:21.408Z,6.03
2022-09-07T09:31:48.163Z,5.60
2022-09-07T09:34:17.531Z,6.00
2022-09-07T09:36:46.100Z,4.90
2022-09-07T09:39:25.174Z,5.23
2022-09-07T09:41:51.973Z,5.07
2022-09-07T09:44:18.553Z,4.57
2022-09-07T09:47:29.483Z,5.20
2022-09-07T09:49:40.595Z,5.80
2022-09-07T09:52:41.749Z,5.57
2022-09-07T09:55:30.555Z,5.50
2022-09-07T10:03:57.385Z,6.00
2022-09-07T10:06:26.305Z,5.67
2022-09-07T10:09:00.415Z,5.53
2022-09-07T10:14:44.013Z,5.80
2022-09-07T10:17:44.599Z,5.27
2022-09-07T10:20:16.744Z,5.83
2022-09-07T10:22:58.418Z,5.50
2022-09-07T10:25:45.297Z,5.30
2022-09-07T10:28:12.725Z,4.90
2022-09-07T10:31:07.298Z,5.40
2022-09-07T10:37:04.828Z,7.63
2022-09-07T10:39:41.785Z,6.70
2022-09-07T10:42:40.044Z,8.33
2022-09-07T10:45:20.417Z,8.17
2022-09-07T10:48:10.941Z,8.30
2022-09-07T10:50:48.326Z,9.77
2022-09-07T10:53:43.407Z,9.83
2022-09-07T10:56:21.732Z,10.70
2022-09-07T10:59:04.365Z,11.30
2022-09-07T11:01:34.020Z,12.47
2022-09-07T11:04:32.433Z,12.77
2022-09-07T11:07:24.605Z,13.10
2022-09-07T11:10:10.467Z,13.20
2022-09-07T11:12:39.407Z,13.27
2022-09-07T11:15:31.292Z,13.03
2022-09-07T11:18:11.907Z,13.03
2022-09-07T11:20:55.062Z,12.60
2022-09-07T11:23:41.320Z,12.97
2022-09-07T11:26:32.499Z,11.97
2022-09-07T11:32:02.186Z,10.67
2022-09-07T11:34:52.147Z,9.67
2022-09-07T11:37:19.297Z,10.67
2022-09-07T11:39:56.679Z,10.63
2022-09-07T11:42:47.002Z,11.97
2022-09-07T11:45:28.243Z,14.00
2022-09-07T11:48:10.847Z,15.70
2022-09-07T11:50:42.817Z,15.67
2022-09-07T11:53:29.763Z,15.07
2022-09-07T11:56:09.668Z,15.30
2022-09-07T11:59:21.495Z,14.93
2022-09-07T12:01:57.144Z,16.80
2022-09-07T12:04:56.487Z,15.20
2022-09-07T12:07:38.356Z,14.30
2022-09-07T12:10:52.586Z,13.60
2022-09-07T12:13:33.735Z,12.97
2022-09-07T12:16:25.962Z,15.47
2022-09-07T12:19:10.283Z,15.90
2022-09-07T12:21:42.441Z,13.90
2022-09-07T12:24:32.543Z,14.63
2022-09-07T12:27:10.459Z,13.73
2022-09-07T12:29:37.606Z,12.03
2022-09-07T12:32:53.406Z,11.30
2022-09-07T12:34:54.330Z,12.60
2022-09-07T12:37:26.673Z,11.27
2022-09-07T12:40:27.172Z,12.83
2022-09-07T12:43:12.640Z,13.67
2022-09-07T12:45:39.154Z,14.90
2022-09-07T12:48:15.394Z,14.63
2022-09-07T12:50:58.768Z,16.27
2022-09-07T12:53:57.883Z,15.60
2022-09-07T12:56:25.060Z,14.87
2022-09-07T12:58:59.250Z,13.50
2022-09-07T13:01:35.080Z,14.00
2022-09-07T13:04:17.046Z,13.77
2022-09-07T13:07:02.908Z,13.93
2022-09-07T13:09:35.344Z,15.13
2022-09-07T13:15:45.326Z,14.33
2022-09-07T13:18:34.725Z,11.97
2022-09-07T13:21:07.769Z,12.87
2022-09-07T13:23:42.963Z,12.20
2022-09-07T13:26:13.136Z,11.50
2022-09-07T13:28:55.961Z,13.80
2022-09-07T13:31:39.022Z,13.20
2022-09-07T13:34:37.550Z,11.40
2022-09-07T13:37:16.520Z,13.10
2022-09-07T13:39:45.712Z,12.30
2022-09-07T13:42:33.661Z,13.10
2022-09-07T13:45:01.846Z,13.53
2022-09-07T13:47:37.389Z,12.00
2022-09-07T13:50:12.300Z,12.27
2022-09-07T13:53:00.576Z,12.10
2022-09-07T13:55:33.404Z,10.90
2022-09-07T13:58:13.579Z,10.93
2022-09-07T14:00:58.718Z,11.93
2022-09-07T14:03:29.580Z,12.57
2022-09-07T14:06:14.875Z,11.30
2022-09-07T14:08:46.182Z,11.83
2022-09-07T14:11:21.752Z,10.23
2022-09-07T14:14:08.177Z,9.77
2022-09-07T14:16:35.698Z,9.93
2022-09-07T14:19:09.079Z,9.83
2022-09-07T14:21:35.648Z,8.13
2022-09-07T14:24:18.571Z,9.23
2022-09-07T14:26:47.766Z,8.53
2022-09-07T14:29:31.041Z,9.07
2022-09-07T14:31:59.098Z,7.30
2022-09-07T14:34:31.027Z,8.53
2022-09-07T14:37:01.661Z,7.90
2022-09-07T14:39:29.756Z,7.70
2022-09-07T14:41:58.915Z,8.37
2022-09-07T14:44:42.713Z,8.07
2022-09-07T14:47:29.669Z,7.70
2022-09-07T14:50:05.660Z,7.30
2022-09-07T14:52:42.490Z,7.33
2022-09-07T14:55:31.003Z,6.67
2022-09-07T14:58:10.023Z,6.27
2022-09-07T15:00:36.978Z,7.40
2022-09-07T15:03:31.991Z,6.87
2022-09-07T15:06:01.406Z,7.30
2022-09-07T15:08:39.978Z,6.67
2022-09-07T15:14:11.059Z,5.80
2022-09-07T15:16:43.882Z,5.70
2022-09-07T15:19:16.564Z,7.00
2022-09-07T15:21:44.822Z,6.37
2022-09-07T15:24:11.705Z,5.60
2022-09-07T15:27:04.952Z,6.23
2022-09-07T15:29:32.263Z,6.20
2022-09-07T15:32:04.386Z,5.70
2022-09-07T15:34:32.577Z,5.10
2022-09-07T15:37:01.398Z,5.30
2022-09-07T15:39:34.199Z,5.30
2022-09-07T15:42:59.474Z,4.83
2022-09-07T15:44:48.706Z,4.97
2022-09-07T15:50:05.573Z,4.07
2022-09-07T15:52:33.070Z,5.40
2022-09-07T15:54:59.667Z,4.10
2022-09-07T16:00:13.158Z,3.90
2022-09-07T16:05:30.395Z,3.37
2022-09-07T16:10:44.429Z,3.60
2022-09-07T16:13:16.226Z,3.40
2022-09-07T16:15:47.717Z,3.10
2022-09-07T16:18:17.311Z,3.00
2022-09-07T16:20:44.885Z,3.47
2022-09-07T16:23:14.352Z,3.40
2022-09-07T16:25:42.168Z,3.40
2022-09-07T16:28:09.373Z,3.43
2022-09-07T16:30:39.299Z,3.00
2022-09-07T16:33:05.991Z,3.10
2022-09-07T16:35:32.844Z,2.90
2022-09-07T16:40:46.542Z,2.33
2022-09-07T16:43:13.055Z,2.83
2022-09-07T16:48:26.085Z,2.50
2022-09-07T16:51:00.367Z,2.70
2022-09-07T16:53:35.768Z,2.93
2022-09-07T16:56:10.870Z,2.50
2022-09-07T16:58:43.110Z,3.10
2022-09-07T17:01:12.439Z,2.60
2022-09-07T17:03:39.836Z,2.70
2022-09-07T17:06:09.284Z,2.00
2022-09-07T17:08:37.079Z,1.80
2022-09-07T17:11:08.929Z,1.70
2022-09-07T17:13:37.215Z,1.70
2022-09-07T17:16:15.378Z,1.83
2022-09-07T17:21:34.795Z,1.67
2022-09-07T17:24:04.203Z,1.37
2022-09-07T17:26:31.833Z,1.30
2022-09-07T17:29:00.642Z,1.50
2022-09-07T17:34:17.807Z,1.23
2022-09-07T17:36:44.771Z,1.47
2022-09-07T17:39:16.231Z,1.23
2022-09-07T17:41:43.690Z,1.27
2022-09-07T17:44:10.450Z,1.80
2022-09-07T17:46:36.976Z,1.33
2022-09-07T17:49:05.101Z,2.17
2022-09-07T17:51:32.766Z,2.20
2022-09-07T17:54:02.430Z,1.80
2022-09-07T17:56:29.580Z,1.83
2022-09-07T18:00:10.718Z,1.57
2022-09-07T18:01:43.467Z,1.83
2022-09-07T18:04:10.927Z,1.70
2022-09-07T18:06:37.612Z,1.57
2022-09-07T18:09:05.243Z,2.00
2022-09-07T18:11:49.296Z,1.50
2022-09-07T18:14:17.262Z,1.40
2022-09-07T18:16:45.734Z,1.80
2022-09-07T18:19:13.097Z,1.30
2022-09-07T18:21:41.744Z,1.50
2022-09-07T18:24:13.636Z,2.00
2022-09-07T18:26:41.057Z,1.60
2022-09-07T18:29:18.785Z,1.80
2022-09-07T18:31:53.670Z,1.63
2022-09-07T18:34:20.677Z,1.40
2022-09-07T18:36:47.417Z,1.60
2022-09-07T18:39:14.034Z,1.83
2022-09-07T18:41:40.898Z,1.50
2022-09-07T18:45:27.277Z,1.63
2022-09-07T18:46:55.263Z,2.53
2022-09-07T18:49:22.201Z,2.10
2022-09-07T18:54:35.921Z,1.97
2022-09-07T18:57:02.856Z,2.43
2022-09-07T18:59:29.977Z,2.13
2022-09-07T19:02:03.024Z,2.50
2022-09-07T19:07:17.861Z,2.50
2022-09-07T19:09:44.411Z,2.80
2022-09-07T19:12:10.932Z,2.53
2022-09-07T19:14:37.914Z,2.80
2022-09-07T19:17:04.489Z,2.70
2022-09-07T19:19:32.798Z,3.00
2022-09-07T19:22:01.455Z,2.80
2022-09-07T19:24:28.487Z,2.40
2022-09-07T19:27:00.122Z,2.80
2022-09-07T19:29:27.439Z,3.07
2022-09-07T19:32:11.594Z,2.90
2022-09-07T19:34:40.837Z,3.00
2022-09-07T19:37:09.248Z,2.47
2022-09-07T19:39:36.028Z,2.70
2022-09-07T19:42:05.044Z,2.37
2022-09-07T19:44:32.348Z,2.47
2022-09-07T19:47:00.245Z,2.93
2022-09-07T19:49:27.657Z,2.70
2022-09-07T19:51:54.885Z,2.90
2022-09-07T19:54:21.533Z,2.47
2022-09-07T19:56:48.491Z,2.40
2022-09-07T19:59:15.129Z,2.70
2022-09-07T20:01:45.982Z,2.73
2022-09-07T20:04:19.581Z,2.87
2022-09-07T20:06:49.531Z,2.80
2022-09-07T20:09:17.219Z,2.80
2022-09-07T20:11:46.797Z,2.53
2022-09-07T20:14:14.936Z,2.73
2022-09-07T20:16:41.874Z,3.67
2022-09-07T20:19:10.617Z,3.10
2022-09-07T20:21:37.578Z,3.10
2022-09-07T20:24:04.830Z,2.60
2022-09-07T20:26:32.253Z,2.50
2022-09-07T20:29:16.705Z,2.53
2022-09-07T20:31:46.631Z,3.40
2022-09-07T20:34:13.387Z,3.00
2022-09-07T20:36:40.029Z,2.87
2022-09-07T20:39:07.093Z,2.63
2022-09-07T20:41:34.529Z,2.87
2022-09-07T20:44:03.048Z,3.30
2022-09-07T20:46:31.154Z,3.07
2022-09-07T20:48:58.381Z,3.57
2022-09-07T20:51:25.589Z,3.70
2022-09-07T20:53:52.405Z,3.13
2022-09-07T20:56:24.063Z,3.10
2022-09-07T20:58:59.832Z,3.67
2022-09-07T21:01:27.360Z,3.00
2022-09-07T21:03:56.410Z,2.70
2022-09-07T21:06:24.268Z,3.10
2022-09-07T21:08:51.036Z,2.93
2022-09-07T21:11:24.990Z,2.63
2022-09-07T21:14:06.742Z,2.70
2022-09-07T21:16:34.576Z,3.10
2022-09-07T21:19:02.600Z,2.70
2022-09-07T21:21:36.626Z,2.77
2022-09-07T21:24:05.732Z,2.70
2022-09-07T21:26:32.861Z,3.00
2022-09-07T21:29:04.863Z,2.87
2022-09-07T21:31:33.498Z,2.90
2022-09-07T21:34:01.752Z,2.50
2022-09-07T21:36:29.141Z,2.67
2022-09-07T21:38:56.149Z,2.80
2022-09-07T21:41:24.181Z,3.00
2022-09-07T21:43:58.520Z,2.80
2022-09-07T21:46:26.339Z,2.57
2022-09-07T21:48:54.261Z,2.60
2022-09-07T21:51:20.872Z,2.47
2022-09-07T21:53:52.068Z,3.03
2022-09-07T21:56:19.085Z,3.40
2022-09-07T21:58:45.743Z,3.33
2022-09-07T22:01:49.886Z,3.10
2022-09-07T22:04:16.445Z,2.80
2022-09-07T22:06:43.787Z,2.40
2022-09-07T22:09:10.284Z,2.73
2022-09-07T22:11:37.321Z,2.20
2022-09-07T22:14:05.369Z,2.70
2022-09-07T22:16:34.136Z,2.40
2022-09-07T22:19:00.889Z,2.90
2022-09-07T22:21:29.400Z,2.40
2022-09-07T22:23:59.255Z,2.60
2022-09-07T22:26:28.440Z,2.30
2022-09-07T22:28:55.538Z,2.20
2022-09-07T22:31:25.974Z,2.77
2022-09-07T22:33:54.061Z,2.40
2022-09-07T22:36:21.731Z,2.60
2022-09-07T22:38:50.841Z,2.50
2022-09-07T22:41:19.883Z,3.00
2022-09-07T22:43:47.341Z,2.70
2022-09-07T22:46:14.255Z,2.60
2022-09-07T22:48:42.847Z,2.40
2022-09-07T22:51:10.272Z,2.40
2022-09-07T22:53:39.307Z,2.50
2022-09-07T22:56:18.485Z,3.27
2022-09-07T22:58:53.591Z,2.60
2022-09-07T23:01:20.849Z,2.67
2022-09-07T23:03:47.837Z,2.90
2022-09-07T23:06:38.606Z,2.80
2022-09-07T23:09:11.630Z,2.77
2022-09-07T23:11:39.077Z,2.80
2022-09-07T23:14:11.585Z,2.53
2022-09-07T23:16:38.797Z,2.70
2022-09-07T23:19:05.313Z,2.30
2022-09-07T23:21:31.814Z,2.80
2022-09-07T23:23:59.709Z,2.57
2022-09-07T23:26:29.452Z,2.47
2022-09-07T23:28:58.168Z,3.00
2022-09-07T23:31:25.612Z,2.30
2022-09-07T23:33:52.359Z,2.60
2022-09-07T23:36:19.403Z,2.50
2022-09-07T23:38:46.299Z,3.10
2022-09-07T23:41:16.261Z,3.00
2022-09-07T23:43:43.932Z,2.80
2022-09-07T23:46:11.465Z,3.30
2022-09-07T23:48:38.202Z,3.00
2022-09-07T23:51:05.661Z,3.00
2022-09-07T23:53:32.444Z,3.63
2022-09-07T23:55:58.963Z,3.20
2022-09-07T23:58:25.621Z,3.30
